Airfield :
LOGIN :

Register | Disclaimer

   EN    FR    IT 

 










Legend :    VFR   Marginal VFR   IFR   Intensive IFR   Very Intensive IFR
Visi :
Ceiling :
>= 8 km
>= 3000ft
5 to 8 km
1000 to 3000 ft
1500m to 5 km
500 to 1000 ft
800 to 1500m
200 to 500 ft
< 800m
< 200 ft
Symbols :   Thunderstorms  Fog  Heavy snow  Heavy precipitations  Wind > 20 kt
SIGMETs :     Misc.  Thunderstorms  Icing  Turbulence  Mountain Waves  Volcanic Ashes






- Airport Elevation : 1276 ft
- IATA code : STR


EDDS - Stuttgart

CURRENT METAR :
  • 200050Z AUTO 28013KT 9999 SCT029 SCT038 BKN044 04/02 Q1012

EXPIRED METARs :
  • 200020Z AUTO 27011KT 9999 FEW025 BKN032 OVC042 05/02 Q1012
  • 192350Z AUTO 25011G23KT 220V290 9999 -SHRA FEW006 BKN034 OVC047 FEW///CB 04/02 Q1012 RESHRA
  • 192320Z AUTO 24006KT 9999 VCSH FEW019 SCT030 BKN041 FEW///CB 04/02 Q1012
  • 192250Z AUTO 27007KT 9999 FEW029 BKN037 05/02 Q1012
  • 192220Z AUTO 27008KT 9999 BKN032 05/02 Q1012
  • 192150Z AUTO 28009KT 9999 FEW039 04/02 Q1011
  • 192120Z AUTO 27007KT 240V310 9999 SCT017 BKN027 BKN034 05/03 Q1011
  • 192050Z AUTO 25009KT 220V280 9999 SCT021 BKN031 BKN040 04/03 Q1011
  • 192020Z AUTO 25011KT 9999 -RA SCT021 BKN031 OVC038 04/02 Q1010 RERA

TAF TAF EDDS
Valid from the 20 at 00:00 until the 21 at 00:00 UTC


192300Z 2000/2024 29010KT 9999 BKN040
PROB30
TEMPO 2000/2004 SHRA BKN012TCU
TEMPO 2011/2020 SHRA BKN020CB
PROB30
TEMPO 2012/2018 TSRA
PROB40
TEMPO 2020/2024 BKN010



MET'MAP, your aeronautical weather chart ! - Copyright ORBIFLY December 2007 - Disclaimer

ORBIFLY MET'MAP TEAM :

Programming & Development : Alexandra Zaïnal
Original concept : Baudouin d'Aumeries
Technical & hardware support : Manuel Goepfert
Assistance : Marc-Olivier Méhu




SOURCES & CREDITS :

   NOAA